Time;durP1;ratioP1;P1;durP2;ratioP2;P2;SDS_P1;SDS_P2;PMS_P1;PMS_P2;Temp;Humidity;BMP_temperature;BMP_pressure;BME280_temperature;BME280_humidity;BME280_pressure;Samples;Min_cycle;Max_cycle;Signal;HPM_P1;HPM_P2
2023/05/07 00:00:21;;;;;;;8.48;7.68;;;16.80;99.90;;;;;;6184721;23;20011;-71
2023/05/07 00:02:47;;;;;;;8.73;7.82;;;16.80;99.90;;;;;;6211935;23;20071;-72
2023/05/07 00:05:13;;;;;;;9.30;8.40;;;16.90;99.90;;;;;;6211883;23;20324;-71
2023/05/07 00:07:39;;;;;;;8.95;8.07;;;16.80;99.90;;;;;;6212486;23;20016;-71
2023/05/07 00:10:06;;;;;;;12.50;8.73;;;16.80;99.90;;;;;;6211806;23;20076;-71
2023/05/07 00:12:33;;;;;;;10.40;8.48;;;16.80;99.90;;;;;;6212219;23;20003;-71
2023/05/07 00:15:00;;;;;;;9.93;8.98;;;16.80;99.90;;;;;;6211216;23;20005;-71
2023/05/07 00:17:25;;;;;;;9.57;8.68;;;16.80;99.90;;;;;;6211936;23;19996;-71
2023/05/07 00:19:51;;;;;;;9.55;8.65;;;16.70;99.90;;;;;;6211766;23;20204;-71
2023/05/07 00:22:17;;;;;;;10.10;9.10;;;16.80;99.90;;;;;;6185118;23;20066;-71
2023/05/07 00:24:42;;;;;;;10.02;8.75;;;16.70;99.90;;;;;;6185138;23;20011;-72
2023/05/07 00:27:08;;;;;;;10.00;8.70;;;16.70;99.90;;;;;;6211486;23;20330;-72
2023/05/07 00:29:33;;;;;;;9.23;8.50;;;16.60;99.90;;;;;;6211733;23;20001;-71
2023/05/07 00:31:59;;;;;;;10.10;8.75;;;16.60;99.90;;;;;;6212115;23;20008;-71
2023/05/07 00:34:25;;;;;;;10.90;9.80;;;16.60;99.90;;;;;;6211557;23;20027;-71
2023/05/07 00:36:50;;;;;;;9.80;9.00;;;16.70;99.90;;;;;;6210918;23;20361;-71
2023/05/07 00:39:16;;;;;;;10.57;8.82;;;16.60;99.90;;;;;;6210809;23;20441;-72
2023/05/07 00:41:41;;;;;;;11.20;9.32;;;16.50;99.90;;;;;;6184424;23;20087;-72
2023/05/07 00:44:07;;;;;;;12.20;9.38;;;16.50;99.90;;;;;;6211523;23;20358;-71
2023/05/07 00:46:33;;;;;;;10.68;9.68;;;16.50;99.90;;;;;;6211668;23;20418;-71
2023/05/07 00:48:59;;;;;;;10.00;9.07;;;16.40;99.90;;;;;;6211584;23;20067;-72
2023/05/07 00:51:27;;;;;;;12.52;11.30;;;16.30;99.90;;;;;;6211612;23;20024;-71
2023/05/07 00:53:53;;;;;;;10.77;9.68;;;16.40;99.90;;;;;;6211512;23;20001;-72
2023/05/07 00:56:21;;;;;;;11.45;10.35;;;16.30;99.90;;;;;;6211229;23;20035;-71
2023/05/07 00:58:46;;;;;;;11.75;10.68;;;16.20;99.90;;;;;;6184664;23;20031;-72
2023/05/07 01:01:12;;;;;;;11.80;10.63;;;16.20;99.90;;;;;;6211325;23;20418;-71
2023/05/07 01:03:38;;;;;;;12.48;10.73;;;16.20;99.90;;;;;;6211963;23;20373;-72
2023/05/07 01:06:04;;;;;;;11.25;10.25;;;16.10;99.90;;;;;;6184709;23;20307;-71
2023/05/07 01:08:32;;;;;;;12.38;11.20;;;16.10;99.90;;;;;;6211711;23;20035;-71
2023/05/07 01:10:59;;;;;;;13.90;12.00;;;16.10;99.90;;;;;;6211330;23;20007;-72
2023/05/07 01:13:25;;;;;;;11.88;10.82;;;16.00;99.90;;;;;;6211270;23;20004;-72
2023/05/07 01:15:50;;;;;;;14.52;13.02;;;16.00;99.90;;;;;;6211469;23;20001;-71
2023/05/07 01:18:16;;;;;;;13.48;12.02;;;16.00;99.90;;;;;;6211034;23;20007;-71
2023/05/07 01:20:42;;;;;;;13.30;11.75;;;16.00;99.90;;;;;;6184731;23;20012;-72
2023/05/07 01:23:10;;;;;;;13.63;12.23;;;16.10;99.90;;;;;;6210796;23;20005;-72
2023/05/07 01:25:36;;;;;;;13.73;12.52;;;16.10;99.90;;;;;;6210984;23;20007;-71
2023/05/07 01:28:02;;;;;;;13.88;12.52;;;16.10;99.90;;;;;;6211301;23;20005;-72
2023/05/07 01:30:28;;;;;;;14.88;13.38;;;16.10;99.90;;;;;;6211391;23;20004;-72
2023/05/07 01:33:02;;;;;;;13.98;12.68;;;16.10;99.90;;;;;;6210995;23;20031;-72
2023/05/07 01:35:35;;;;;;;14.20;12.70;;;16.20;99.90;;;;;;6211389;23;20024;-71
2023/05/07 01:38:04;;;;;;;13.45;12.25;;;16.20;99.90;;;;;;6211304;23;20041;-72
2023/05/07 01:40:30;;;;;;;13.95;12.52;;;16.20;99.90;;;;;;6183844;23;20005;-72
2023/05/07 01:42:56;;;;;;;13.93;12.52;;;16.20;99.90;;;;;;6211460;23;20027;-72
2023/05/07 01:45:22;;;;;;;14.18;12.85;;;16.20;99.90;;;;;;6184140;23;20131;-71
2023/05/07 01:47:49;;;;;;;15.23;13.85;;;16.20;99.90;;;;;;6211631;23;20779;-72
2023/05/07 01:50:18;;;;;;;14.93;13.52;;;16.20;99.90;;;;;;6210728;23;20401;-71
2023/05/07 01:52:43;;;;;;;15.02;13.55;;;16.30;99.90;;;;;;6211375;23;20030;-71
2023/05/07 01:55:09;;;;;;;15.82;14.45;;;16.30;99.90;;;;;;6210376;23;20414;-72
2023/05/07 01:57:35;;;;;;;16.40;14.85;;;16.30;99.90;;;;;;6210914;23;20059;-71
2023/05/07 02:00:02;;;;;;;14.57;13.27;;;16.20;99.90;;;;;;6210632;23;20036;-71
2023/05/07 02:02:28;;;;;;;15.02;13.68;;;16.30;99.90;;;;;;6184312;23;20005;-71
2023/05/07 02:04:53;;;;;;;16.08;14.43;;;16.30;99.90;;;;;;6211100;23;20319;-71
2023/05/07 02:07:19;;;;;;;15.02;13.63;;;16.30;99.90;;;;;;6210545;23;20028;-71
2023/05/07 02:09:44;;;;;;;15.80;14.38;;;16.30;99.90;;;;;;6184033;23;20004;-71
2023/05/07 02:12:10;;;;;;;14.45;13.15;;;16.30;99.90;;;;;;6210768;23;20401;-71
2023/05/07 02:14:35;;;;;;;15.75;14.27;;;16.30;99.90;;;;;;6211173;23;20472;-71
2023/05/07 02:17:01;;;;;;;15.23;13.93;;;16.30;99.90;;;;;;6184225;23;20011;-71
2023/05/07 02:19:26;;;;;;;16.85;15.02;;;16.30;99.90;;;;;;6210539;23;20440;-71
2023/05/07 02:21:52;;;;;;;16.70;15.13;;;16.30;99.90;;;;;;6211146;23;20032;-71
2023/05/07 02:24:18;;;;;;;14.95;13.65;;;16.30;99.90;;;;;;6183104;23;20008;-71
2023/05/07 02:26:43;;;;;;;16.58;15.00;;;16.30;99.90;;;;;;6211276;23;19997;-71
2023/05/07 02:29:09;;;;;;;16.80;15.23;;;16.30;99.90;;;;;;6210540;23;20011;-71
2023/05/07 02:31:35;;;;;;;18.02;16.42;;;16.20;99.90;;;;;;6184046;23;20087;-71
2023/05/07 02:34:01;;;;;;;17.80;16.05;;;16.20;99.90;;;;;;6210742;23;20210;-71
2023/05/07 02:36:26;;;;;;;15.73;14.35;;;16.20;99.90;;;;;;6183771;23;20083;-71
2023/05/07 02:38:52;;;;;;;18.40;16.80;;;16.10;99.90;;;;;;6210406;23;20013;-71
2023/05/07 02:41:18;;;;;;;19.23;17.30;;;16.10;99.90;;;;;;6209486;23;20001;-72
2023/05/07 02:43:43;;;;;;;17.55;15.75;;;16.10;99.90;;;;;;6182077;23;20028;-71
2023/05/07 02:46:09;;;;;;;19.55;17.75;;;16.10;99.90;;;;;;6209564;23;20000;-72
2023/05/07 02:48:35;;;;;;;21.27;19.27;;;16.10;99.90;;;;;;6208894;23;20001;-71
2023/05/07 02:51:01;;;;;;;20.63;18.80;;;16.10;99.90;;;;;;6210005;23;20464;-71
2023/05/07 02:53:27;;;;;;;21.42;19.25;;;16.10;99.90;;;;;;6208955;23;20019;-71
2023/05/07 02:55:53;;;;;;;20.27;18.58;;;16.10;99.90;;;;;;6211194;23;20009;-71
2023/05/07 02:58:19;;;;;;;23.77;21.45;;;16.10;99.90;;;;;;6210401;23;20001;-71
2023/05/07 03:00:45;;;;;;;21.02;19.02;;;16.10;99.90;;;;;;6184263;23;20075;-71
2023/05/07 03:03:10;;;;;;;23.10;21.10;;;16.10;99.90;;;;;;6210509;23;20349;-71
2023/05/07 03:05:36;;;;;;;24.40;21.95;;;16.10;99.90;;;;;;6210890;23;20001;-72
2023/05/07 03:08:02;;;;;;;21.95;19.98;;;16.10;99.90;;;;;;6210289;23;20417;-71
2023/05/07 03:10:28;;;;;;;23.90;21.70;;;16.10;99.90;;;;;;6210341;23;20039;-72
2023/05/07 03:12:53;;;;;;;23.95;21.38;;;16.00;99.90;;;;;;6210979;23;20008;-71
2023/05/07 03:15:19;;;;;;;24.70;22.40;;;16.00;99.90;;;;;;6210163;23;20632;-72
2023/05/07 03:17:44;;;;;;;23.00;20.77;;;16.00;99.90;;;;;;6210830;23;20003;-71
2023/05/07 03:20:10;;;;;;;24.23;21.98;;;16.00;99.90;;;;;;6210468;23;20008;-71
2023/05/07 03:22:36;;;;;;;24.70;22.48;;;16.00;99.90;;;;;;6210489;23;20024;-71
2023/05/07 03:25:02;;;;;;;23.10;20.83;;;16.00;99.90;;;;;;6210951;23;20012;-71
2023/05/07 03:27:27;;;;;;;23.38;21.27;;;16.00;99.90;;;;;;6210156;23;20007;-71
2023/05/07 03:29:53;;;;;;;21.75;19.45;;;16.00;99.90;;;;;;6210736;23;20329;-71
2023/05/07 03:32:18;;;;;;;23.83;21.35;;;16.00;99.90;;;;;;6210078;23;20072;-71
2023/05/07 03:34:44;;;;;;;21.60;19.75;;;16.00;99.90;;;;;;6210710;23;20489;-71
2023/05/07 03:37:09;;;;;;;22.90;20.80;;;15.90;99.90;;;;;;6210186;23;20000;-71
2023/05/07 03:39:35;;;;;;;23.90;21.60;;;15.90;99.90;;;;;;6210109;23;20031;-72
2023/05/07 03:42:01;;;;;;;23.38;21.27;;;15.90;99.90;;;;;;6210590;23;20317;-71
2023/05/07 03:44:26;;;;;;;22.70;20.55;;;15.90;99.90;;;;;;6209998;23;20009;-72
2023/05/07 03:46:52;;;;;;;21.40;19.45;;;15.90;99.90;;;;;;6212450;23;20075;-71
2023/05/07 03:49:17;;;;;;;24.23;21.92;;;15.90;99.90;;;;;;6211833;23;20005;-71
2023/05/07 03:51:43;;;;;;;22.73;20.63;;;15.90;99.90;;;;;;6212031;23;20032;-72
2023/05/07 03:54:08;;;;;;;20.65;18.70;;;15.90;99.90;;;;;;6212456;23;20008;-71
2023/05/07 03:56:34;;;;;;;23.08;20.80;;;15.90;99.90;;;;;;6212090;23;20357;-72
2023/05/07 03:59:00;;;;;;;22.83;20.67;;;15.90;99.90;;;;;;6212170;23;20008;-72
2023/05/07 04:01:26;;;;;;;22.02;20.13;;;15.90;99.90;;;;;;6211740;23;20001;-72
2023/05/07 04:03:51;;;;;;;23.50;21.40;;;15.90;99.90;;;;;;6185310;23;20012;-71
2023/05/07 04:06:17;;;;;;;22.63;20.65;;;15.90;99.90;;;;;;6211008;23;20004;-71
2023/05/07 04:08:43;;;;;;;21.58;19.52;;;15.90;99.90;;;;;;6211415;23;20518;-72
2023/05/07 04:11:08;;;;;;;22.25;20.08;;;15.90;99.90;;;;;;6184934;23;20430;-72
2023/05/07 04:13:34;;;;;;;22.67;20.63;;;15.90;99.90;;;;;;6211617;23;20008;-72
2023/05/07 04:16:02;;;;;;;22.60;20.40;;;15.90;99.90;;;;;;6212191;23;20001;-72
2023/05/07 04:18:27;;;;;;;20.65;18.65;;;15.90;99.90;;;;;;6211554;23;20083;-71
2023/05/07 04:20:53;;;;;;;23.60;21.52;;;15.90;99.90;;;;;;6185113;23;20043;-71
2023/05/07 04:23:19;;;;;;;23.98;21.60;;;15.90;99.90;;;;;;6211253;23;20001;-71
2023/05/07 04:25:45;;;;;;;22.98;20.63;;;15.90;99.90;;;;;;6185537;23;20418;-71
2023/05/07 04:28:11;;;;;;;23.67;21.48;;;15.90;99.90;;;;;;6211732;23;20001;-71
2023/05/07 04:30:37;;;;;;;24.88;22.58;;;15.90;99.90;;;;;;6211751;23;20001;-71
2023/05/07 04:33:02;;;;;;;23.55;21.35;;;15.80;99.90;;;;;;6212086;23;20087;-71
2023/05/07 04:35:28;;;;;;;24.50;22.15;;;15.80;99.90;;;;;;6210646;23;20076;-72
2023/05/07 04:37:53;;;;;;;24.02;21.67;;;15.80;99.90;;;;;;6212217;23;20103;-71
2023/05/07 04:40:19;;;;;;;23.92;21.83;;;15.80;99.90;;;;;;6211677;23;20001;-72
2023/05/07 04:42:45;;;;;;;23.05;20.92;;;15.80;99.90;;;;;;6211645;23;20017;-72
2023/05/07 04:45:12;;;;;;;25.27;22.85;;;15.70;99.90;;;;;;6211748;23;20083;-72
2023/05/07 04:47:38;;;;;;;26.17;23.42;;;15.80;99.90;;;;;;6211569;23;20005;-71
2023/05/07 04:50:04;;;;;;;27.85;25.25;;;15.80;99.90;;;;;;6211255;23;20007;-71
2023/05/07 04:52:29;;;;;;;27.48;24.88;;;15.80;99.90;;;;;;6211204;23;19999;-71
2023/05/07 04:54:55;;;;;;;26.42;23.92;;;15.80;99.90;;;;;;6185119;23;19997;-71
2023/05/07 04:57:21;;;;;;;30.08;27.48;;;15.80;99.90;;;;;;6210979;23;20007;-71
2023/05/07 04:59:46;;;;;;;29.25;26.80;;;15.80;99.90;;;;;;6211528;23;20000;-71
2023/05/07 05:02:12;;;;;;;27.80;25.17;;;15.80;99.90;;;;;;6211330;23;20059;-71
2023/05/07 05:04:37;;;;;;;25.77;23.38;;;15.80;99.90;;;;;;6210864;23;20000;-71
2023/05/07 05:07:06;;;;;;;25.80;23.65;;;15.80;99.90;;;;;;6211798;23;20032;-71
2023/05/07 05:09:31;;;;;;;25.90;23.50;;;15.90;99.90;;;;;;6211244;23;20075;-71
2023/05/07 05:11:57;;;;;;;24.95;22.65;;;15.80;99.90;;;;;;6211767;23;20032;-71
2023/05/07 05:14:22;;;;;;;26.13;23.52;;;15.80;99.90;;;;;;6211180;23;20005;-71
2023/05/07 05:16:48;;;;;;;26.08;23.65;;;15.80;99.90;;;;;;6211230;23;20071;-71
2023/05/07 05:19:14;;;;;;;26.00;23.60;;;15.90;99.90;;;;;;6210759;23;20004;-71
2023/05/07 05:21:39;;;;;;;23.60;21.23;;;15.90;99.90;;;;;;6211245;23;20483;-71
2023/05/07 05:24:05;;;;;;;23.45;21.45;;;15.90;99.90;;;;;;6211574;23;20000;-71
2023/05/07 05:26:31;;;;;;;23.90;21.73;;;16.00;99.90;;;;;;6211062;23;20004;-70
2023/05/07 05:28:56;;;;;;;23.40;21.33;;;16.00;99.90;;;;;;6211671;23;20150;-71
2023/05/07 05:31:22;;;;;;;22.05;19.98;;;16.00;99.90;;;;;;6211112;23;20030;-71
2023/05/07 05:33:47;;;;;;;24.48;22.27;;;16.00;99.90;;;;;;6210737;23;20000;-71
2023/05/07 05:36:13;;;;;;;23.42;21.45;;;16.10;99.90;;;;;;6211276;23;20011;-71
2023/05/07 05:38:39;;;;;;;22.50;20.25;;;16.10;99.90;;;;;;6210984;23;20004;-72
2023/05/07 05:41:05;;;;;;;24.05;22.05;;;16.10;99.90;;;;;;6211029;23;20434;-71
2023/05/07 05:43:31;;;;;;;22.10;19.90;;;16.10;99.90;;;;;;6211428;23;20080;-72
2023/05/07 05:45:56;;;;;;;22.45;20.45;;;16.10;99.90;;;;;;6211023;23;20007;-71
2023/05/07 05:48:22;;;;;;;21.55;19.65;;;16.10;99.90;;;;;;6210481;23;20005;-72
2023/05/07 05:50:48;;;;;;;21.45;19.42;;;16.10;99.90;;;;;;6211110;23;20123;-71
2023/05/07 05:53:13;;;;;;;23.88;21.50;;;16.10;99.90;;;;;;6184157;23;20008;-71
2023/05/07 05:55:39;;;;;;;22.63;20.70;;;16.10;99.90;;;;;;6211395;23;20000;-72
2023/05/07 05:58:05;;;;;;;23.35;21.15;;;16.10;99.90;;;;;;6211011;23;20001;-72
2023/05/07 06:00:32;;;;;;;17.90;16.27;;;16.10;99.90;;;;;;6210915;23;20087;-72
2023/05/07 06:02:57;;;;;;;22.10;20.10;;;16.20;99.90;;;;;;6210148;23;20076;-72
2023/05/07 06:05:23;;;;;;;22.13;20.02;;;16.10;99.90;;;;;;6183088;23;20145;-72
2023/05/07 06:07:48;;;;;;;21.83;19.67;;;16.20;99.90;;;;;;6208672;23;20001;-72
2023/05/07 06:10:14;;;;;;;23.23;21.15;;;16.20;99.90;;;;;;6210188;23;20011;-72
2023/05/07 06:12:39;;;;;;;25.02;22.42;;;16.20;99.90;;;;;;6210973;23;20051;-72
2023/05/07 06:15:05;;;;;;;22.20;20.20;;;16.20;99.90;;;;;;6210457;23;20012;-72
2023/05/07 06:17:31;;;;;;;22.70;20.52;;;16.20;99.90;;;;;;6210919;23;20377;-72
2023/05/07 06:19:57;;;;;;;21.02;19.25;;;16.20;99.90;;;;;;6210756;23;20011;-72
2023/05/07 06:22:22;;;;;;;24.73;22.40;;;16.20;99.90;;;;;;6211054;23;20010;-72
2023/05/07 06:24:48;;;;;;;23.05;20.85;;;16.30;99.90;;;;;;6210810;23;20008;-72
2023/05/07 06:27:13;;;;;;;23.52;21.33;;;16.30;99.90;;;;;;6210672;23;20063;-72
2023/05/07 06:29:39;;;;;;;21.70;19.77;;;16.40;99.90;;;;;;6210462;23;20000;-72
2023/05/07 06:32:11;;;;;;;24.25;22.10;;;16.40;99.90;;;;;;6210798;23;20477;-72
2023/05/07 06:34:38;;;;;;;24.00;22.00;;;16.40;99.90;;;;;;6211142;23;20045;-72
2023/05/07 06:37:03;;;;;;;24.05;21.83;;;16.50;99.90;;;;;;6183817;23;20465;-72
2023/05/07 06:39:29;;;;;;;24.50;22.38;;;16.60;99.90;;;;;;6210710;23;20005;-72
2023/05/07 06:41:55;;;;;;;23.05;21.08;;;16.70;99.90;;;;;;6181189;23;20023;-72
2023/05/07 06:44:20;;;;;;;20.58;18.73;;;16.70;99.90;;;;;;6209605;23;20506;-71
2023/05/07 06:46:46;;;;;;;23.92;21.75;;;16.70;99.90;;;;;;6184469;23;20012;-72
2023/05/07 06:49:15;;;;;;;20.95;19.15;;;16.70;99.90;;;;;;6210212;23;20009;-72
2023/05/07 06:51:40;;;;;;;23.35;21.33;;;16.80;99.90;;;;;;6210853;23;20011;-72
2023/05/07 06:54:06;;;;;;;22.42;20.42;;;16.80;99.90;;;;;;6210500;23;20004;-72
2023/05/07 06:56:33;;;;;;;24.75;22.58;;;16.80;99.90;;;;;;6210927;23;20057;-72
2023/05/07 06:59:00;;;;;;;22.75;20.92;;;16.90;99.90;;;;;;6210340;23;20027;-72
2023/05/07 07:01:25;;;;;;;22.38;20.48;;;16.90;99.90;;;;;;6183597;23;20375;-72
2023/05/07 07:03:51;;;;;;;21.17;19.27;;;16.90;99.90;;;;;;6210731;23;20008;-72
2023/05/07 07:06:17;;;;;;;24.83;22.63;;;17.00;99.90;;;;;;6210267;23;20004;-72
2023/05/07 07:08:43;;;;;;;23.67;21.60;;;17.00;99.90;;;;;;6183791;23;20005;-73
2023/05/07 07:11:10;;;;;;;25.02;22.55;;;17.10;99.90;;;;;;6183921;23;20009;-72
2023/05/07 07:13:36;;;;;;;23.92;21.73;;;17.10;99.90;;;;;;6210297;23;19997;-72
2023/05/07 07:16:02;;;;;;;24.90;22.50;;;17.10;99.90;;;;;;6210709;23;20077;-72
2023/05/07 07:18:27;;;;;;;24.88;22.38;;;17.10;99.90;;;;;;6183941;23;20007;-73
2023/05/07 07:20:53;;;;;;;28.73;26.35;;;17.10;99.90;;;;;;6212034;23;20374;-72
2023/05/07 07:23:18;;;;;;;28.17;25.75;;;17.10;99.90;;;;;;6212085;23;20274;-72
2023/05/07 07:25:44;;;;;;;26.17;23.67;;;17.10;99.90;;;;;;6212931;23;20430;-72
2023/05/07 07:28:10;;;;;;;28.08;25.65;;;17.10;99.90;;;;;;6211627;23;20079;-72
2023/05/07 07:30:37;;;;;;;29.33;26.55;;;17.20;99.90;;;;;;6186191;23;20018;-72
2023/05/07 07:33:03;;;;;;;26.98;24.67;;;17.30;99.90;;;;;;6212727;23;20036;-72
2023/05/07 07:35:32;;;;;;;29.67;27.02;;;17.30;99.90;;;;;;6212355;23;20008;-72
2023/05/07 07:37:58;;;;;;;27.50;25.27;;;17.30;99.90;;;;;;6212914;23;20358;-71
2023/05/07 07:40:24;;;;;;;27.40;24.90;;;17.40;99.90;;;;;;6212136;23;20341;-82
2023/05/07 07:42:50;;;;;;;27.77;25.40;;;17.50;99.90;;;;;;6212202;23;20178;-72
2023/05/07 07:45:16;;;;;;;29.13;26.33;;;17.50;99.90;;;;;;6211957;23;20000;-73
2023/05/07 07:47:42;;;;;;;30.05;27.20;;;17.50;99.90;;;;;;6212283;23;20008;-72
2023/05/07 07:50:08;;;;;;;30.83;28.08;;;17.40;99.90;;;;;;6185341;23;20011;-73
2023/05/07 07:52:34;;;;;;;30.85;27.75;;;17.50;99.90;;;;;;6185338;23;20009;-72
2023/05/07 07:54:59;;;;;;;28.40;25.98;;;17.60;99.90;;;;;;6212104;23;20123;-72
2023/05/07 07:57:25;;;;;;;32.13;29.13;;;17.60;99.90;;;;;;6211149;23;20004;-72
2023/05/07 07:59:51;;;;;;;32.15;29.17;;;17.60;99.90;;;;;;6212062;23;20037;-72
2023/05/07 08:02:16;;;;;;;31.30;28.52;;;17.60;99.90;;;;;;6184242;23;20015;-72
2023/05/07 08:04:43;;;;;;;32.58;29.48;;;17.60;99.90;;;;;;6212189;23;20054;-72
2023/05/07 08:07:09;;;;;;;32.97;29.75;;;17.60;99.90;;;;;;6184512;23;20100;-71
2023/05/07 08:09:35;;;;;;;30.52;27.48;;;17.70;99.90;;;;;;6211988;23;20035;-72
2023/05/07 08:12:01;;;;;;;31.02;28.25;;;17.70;99.90;;;;;;6211431;23;20318;-72
2023/05/07 08:14:28;;;;;;;29.80;27.20;;;17.70;99.90;;;;;;6211399;23;20036;-72
2023/05/07 08:16:54;;;;;;;29.40;26.67;;;17.80;99.90;;;;;;6185255;23;20004;-72
2023/05/07 08:19:20;;;;;;;28.65;26.05;;;17.90;99.90;;;;;;6184340;23;20009;-72
2023/05/07 08:21:47;;;;;;;30.92;27.95;;;18.00;99.90;;;;;;6211920;23;20023;-72
2023/05/07 08:24:16;;;;;;;29.35;26.55;;;18.10;99.90;;;;;;6211166;23;20051;-72
2023/05/07 08:26:42;;;;;;;27.42;25.02;;;18.20;99.90;;;;;;6184893;23;20005;-72
2023/05/07 08:29:07;;;;;;;30.95;28.00;;;18.30;99.90;;;;;;6211616;23;20143;-72
2023/05/07 08:31:33;;;;;;;28.23;25.70;;;18.20;99.90;;;;;;6210722;23;20042;-72
2023/05/07 08:33:59;;;;;;;27.27;24.75;;;18.30;99.90;;;;;;6185059;23;20032;-72
2023/05/07 08:36:25;;;;;;;28.58;26.05;;;18.30;99.90;;;;;;6211186;23;20032;-72
2023/05/07 08:38:51;;;;;;;26.83;24.45;;;18.40;99.90;;;;;;6211802;23;20008;-72
2023/05/07 08:41:17;;;;;;;26.80;24.20;;;18.50;99.90;;;;;;6210614;23;20020;-72
2023/05/07 08:43:47;;;;;;;27.85;25.35;;;18.60;99.90;;;;;;6211563;23;20326;-72
2023/05/07 08:46:19;;;;;;;24.63;22.20;;;18.60;99.90;;;;;;6210871;23;20001;-72
2023/05/07 08:48:45;;;;;;;24.25;21.85;;;18.70;99.90;;;;;;6211863;23;20012;-72
2023/05/07 08:51:15;;;;;;;24.98;22.73;;;18.60;99.90;;;;;;6210949;23;19997;-72
2023/05/07 08:53:41;;;;;;;25.38;22.88;;;18.60;99.90;;;;;;6211733;23;20007;-72
2023/05/07 08:56:08;;;;;;;25.80;23.60;;;18.60;99.90;;;;;;6210527;23;20008;-73
2023/05/07 08:58:34;;;;;;;25.50;22.85;;;18.70;99.90;;;;;;6211356;23;20000;-72
2023/05/07 09:01:04;;;;;;;27.10;24.50;;;18.80;99.90;;;;;;6211235;23;20419;-72
2023/05/07 09:03:31;;;;;;;27.05;24.45;;;18.80;99.90;;;;;;6210758;23;20000;-72
2023/05/07 09:05:56;;;;;;;25.10;23.02;;;18.90;99.90;;;;;;6211309;23;20003;-72
2023/05/07 09:08:25;;;;;;;26.48;24.00;;;19.00;99.90;;;;;;6210679;23;20645;-73
2023/05/07 09:10:52;;;;;;;26.48;23.65;;;19.00;99.90;;;;;;6184353;23;20107;-73
2023/05/07 09:13:18;;;;;;;24.58;22.27;;;19.00;99.90;;;;;;6210826;23;20000;-73
2023/05/07 09:15:43;;;;;;;24.33;21.92;;;19.00;99.90;;;;;;6211148;23;20001;-72
2023/05/07 09:18:09;;;;;;;26.88;24.23;;;19.20;99.90;;;;;;6211041;23;20083;-72
2023/05/07 09:20:37;;;;;;;22.50;20.50;;;19.30;99.90;;;;;;6211139;23;20091;-73
2023/05/07 09:23:02;;;;;;;20.20;18.50;;;19.50;99.90;;;;;;6210880;23;19997;-73
2023/05/07 09:25:37;;;;;;;22.20;19.90;;;19.60;99.90;;;;;;6210376;23;20104;-73
2023/05/07 09:28:06;;;;;;;20.98;19.17;;;19.60;99.90;;;;;;6211157;23;20004;-73
2023/05/07 09:30:32;;;;;;;23.35;21.25;;;19.60;99.90;;;;;;6210759;23;20000;-73
2023/05/07 09:33:00;;;;;;;24.35;22.08;;;19.80;99.90;;;;;;6211274;23;20047;-73
2023/05/07 09:35:29;;;;;;;23.63;21.13;;;19.90;99.90;;;;;;6210539;23;20008;-73
2023/05/07 09:37:58;;;;;;;22.25;20.08;;;19.90;99.90;;;;;;6211291;23;20429;-73
2023/05/07 09:40:29;;;;;;;24.02;21.83;;;20.10;99.90;;;;;;6210261;23;19997;-73
2023/05/07 09:42:55;;;;;;;22.23;20.17;;;20.20;99.90;;;;;;6182810;23;20044;-73
2023/05/07 09:45:27;;;;;;;23.67;21.58;;;20.20;99.90;;;;;;6212972;23;20415;-73
2023/05/07 09:47:57;;;;;;;19.40;17.60;;;20.30;99.90;;;;;;6211793;23;20083;-73
2023/05/07 09:50:29;;;;;;;22.17;20.20;;;20.30;99.90;;;;;;6212285;23;20004;-73
2023/05/07 09:52:55;;;;;;;22.50;20.10;;;20.40;99.90;;;;;;6212057;23;20312;-74
2023/05/07 09:55:22;;;;;;;21.38;19.20;;;20.60;99.90;;;;;;6211026;23;20107;-73
2023/05/07 09:57:51;;;;;;;19.63;18.00;;;20.70;99.90;;;;;;6212590;23;20020;-73
2023/05/07 10:00:19;;;;;;;20.75;18.95;;;20.90;99.90;;;;;;6211654;23;20015;-73
2023/05/07 10:02:48;;;;;;;21.45;19.42;;;21.00;99.90;;;;;;6212093;23;20000;-73
2023/05/07 10:05:14;;;;;;;22.10;20.20;;;21.10;99.90;;;;;;6210272;23;20024;-73
2023/05/07 10:07:41;;;;;;;23.10;20.92;;;21.30;99.90;;;;;;6210609;23;20366;-73
2023/05/07 10:10:07;;;;;;;20.58;18.75;;;21.30;99.90;;;;;;6210841;23;20011;-73
2023/05/07 10:12:38;;;;;;;21.38;19.48;;;21.50;99.90;;;;;;6184025;23;20009;-73
2023/05/07 10:15:11;;;;;;;17.20;15.75;;;21.70;99.90;;;;;;6210829;23;20000;-73
2023/05/07 10:17:39;;;;;;;18.70;17.10;;;21.70;99.90;;;;;;6184272;23;20288;-73
2023/05/07 10:20:05;;;;;;;22.17;20.08;;;21.70;99.90;;;;;;6210793;23;20000;-73
2023/05/07 10:22:53;;;;;;;20.52;18.27;;;21.70;99.90;;;;;;6182980;23;20036;-73
2023/05/07 10:25:32;;;;;;;19.75;18.05;;;21.80;99.90;;;;;;6210117;23;20116;-73
2023/05/07 10:28:03;;;;;;;20.33;18.52;;;21.90;99.90;;;;;;6210904;23;20007;-73
2023/05/07 10:31:01;;;;;;;20.42;18.40;;;21.90;99.90;;;;;;6183309;23;20015;-73
2023/05/07 10:33:28;;;;;;;19.58;17.50;;;22.10;99.90;;;;;;6209858;23;20027;-73
2023/05/07 10:35:59;;;;;;;19.83;17.98;;;22.10;99.90;;;;;;6210600;23;20003;-73
2023/05/07 10:38:25;;;;;;;18.52;16.83;;;22.20;99.90;;;;;;6209703;23;20334;-72
2023/05/07 10:40:51;;;;;;;20.15;18.33;;;22.30;99.90;;;;;;6210445;23;20092;-72
2023/05/07 10:43:17;;;;;;;17.55;16.05;;;22.40;99.90;;;;;;6210001;23;20054;-72
2023/05/07 10:45:42;;;;;;;18.90;17.10;;;22.40;99.90;;;;;;6210628;23;20268;-72
2023/05/07 10:48:17;;;;;;;20.85;18.83;;;22.40;99.90;;;;;;6210430;23;20064;-72
2023/05/07 10:50:45;;;;;;;18.75;17.13;;;22.30;99.90;;;;;;6210104;23;20027;-72
2023/05/07 10:53:24;;;;;;;18.25;16.65;;;22.20;99.90;;;;;;6183293;23;20009;-72
2023/05/07 10:56:12;;;;;;;17.50;15.80;;;22.30;99.90;;;;;;6211518;23;20001;-72
2023/05/07 10:58:38;;;;;;;16.38;14.77;;;22.40;99.90;;;;;;6212664;23;20325;-72
2023/05/07 11:01:03;;;;;;;14.48;13.20;;;22.30;99.90;;;;;;6212584;23;19996;-72
2023/05/07 11:03:29;;;;;;;17.55;15.98;;;22.30;99.90;;;;;;6212209;23;20318;-72
2023/05/07 11:06:12;;;;;;;18.45;16.75;;;22.30;99.90;;;;;;6211899;23;20004;-72
2023/05/07 11:08:57;;;;;;;17.83;16.13;;;22.30;99.90;;;;;;6185962;23;20422;-72
2023/05/07 11:11:45;;;;;;;16.52;14.93;;;22.30;99.90;;;;;;6185376;23;20008;-72
2023/05/07 11:14:11;;;;;;;16.65;15.25;;;22.40;99.90;;;;;;6211939;23;20079;-72
2023/05/07 11:16:39;;;;;;;18.95;17.35;;;22.50;99.90;;;;;;6212363;23;20103;-72
2023/05/07 11:19:04;;;;;;;16.70;15.05;;;22.50;99.90;;;;;;6185419;23;20016;-72
2023/05/07 11:21:34;;;;;;;17.35;15.85;;;22.60;99.90;;;;;;6211328;23;20009;-73
2023/05/07 11:24:00;;;;;;;16.27;14.82;;;22.70;99.90;;;;;;6185796;23;20084;-72
2023/05/07 11:26:28;;;;;;;15.88;14.38;;;22.90;99.90;;;;;;6211797;23;20560;-72
2023/05/07 11:28:54;;;;;;;16.48;15.18;;;23.00;99.90;;;;;;6212795;23;20000;-72
2023/05/07 11:31:25;;;;;;;16.58;15.18;;;23.10;99.90;;;;;;6184805;23;20491;-71
2023/05/07 11:33:52;;;;;;;17.13;15.48;;;23.30;99.90;;;;;;6212499;23;20000;-72
2023/05/07 11:36:19;;;;;;;18.10;16.50;;;23.40;99.80;;;;;;6211090;23;20001;-71
2023/05/07 11:38:44;;;;;;;16.60;15.10;;;23.50;99.20;;;;;;6212100;23;20000;-71
2023/05/07 11:41:10;;;;;;;14.68;13.48;;;23.40;99.30;;;;;;6211748;23;20007;-73
2023/05/07 11:43:36;;;;;;;15.73;14.30;;;23.50;99.50;;;;;;6211967;23;20003;-72
2023/05/07 11:46:09;;;;;;;16.30;14.93;;;23.60;99.10;;;;;;6211985;23;19996;-72
2023/05/07 11:48:36;;;;;;;16.35;14.82;;;23.60;98.30;;;;;;6211037;23;20460;-73
2023/05/07 11:51:03;;;;;;;15.93;14.52;;;23.50;98.20;;;;;;6211964;23;20001;-72
2023/05/07 11:53:40;;;;;;;16.02;14.63;;;23.50;98.20;;;;;;6211236;23;19997;-72
2023/05/07 11:56:16;;;;;;;15.38;14.15;;;23.50;98.10;;;;;;6211674;23;20000;-72
2023/05/07 11:58:43;;;;;;;14.52;13.23;;;23.40;97.90;;;;;;6211825;23;20009;-72
2023/05/07 12:01:10;;;;;;;17.23;15.63;;;23.40;98.10;;;;;;6211432;23;19996;-72
2023/05/07 12:03:39;;;;;;;16.23;14.88;;;23.50;98.00;;;;;;6211296;23;20441;-72
2023/05/07 12:06:08;;;;;;;17.17;15.65;;;23.50;97.50;;;;;;6211727;23;20064;-72
2023/05/07 12:08:37;;;;;;;16.75;15.25;;;23.40;97.20;;;;;;6211308;23;20324;-73
2023/05/07 12:11:03;;;;;;;15.73;14.45;;;23.40;97.10;;;;;;6211794;23;20043;-73
2023/05/07 12:13:29;;;;;;;13.70;12.57;;;23.40;97.20;;;;;;6211360;23;20005;-73
2023/05/07 12:15:56;;;;;;;17.10;15.32;;;23.40;97.60;;;;;;6209551;23;20512;-73
2023/05/07 12:18:22;;;;;;;17.48;16.08;;;23.30;98.10;;;;;;6209445;23;20361;-73
2023/05/07 12:20:48;;;;;;;18.30;16.63;;;23.20;98.60;;;;;;6211635;23;20058;-73
2023/05/07 12:23:14;;;;;;;18.25;16.65;;;23.10;99.10;;;;;;6210620;23;20009;-73
2023/05/07 12:25:46;;;;;;;17.38;15.77;;;23.00;99.80;;;;;;6211699;23;19997;-73